sensor_id;sensor_type;location;lat;lon;timestamp;P1;durP1;ratioP1;P2;durP2;ratioP2
18596;SDS011;9428;50.950;6.912;2022-07-29T00:00:55;8.68;;;1.75;;
18596;SDS011;9428;50.950;6.912;2022-07-29T00:03:43;4.15;;;1.70;;
18596;SDS011;9428;50.950;6.912;2022-07-29T00:06:30;6.85;;;1.85;;
18596;SDS011;9428;50.950;6.912;2022-07-29T00:09:17;4.05;;;1.60;;
18596;SDS011;9428;50.950;6.912;2022-07-29T00:12:05;5.15;;;1.88;;
18596;SDS011;9428;50.950;6.912;2022-07-29T00:14:54;3.60;;;1.60;;
18596;SDS011;9428;50.950;6.912;2022-07-29T00:17:42;10.18;;;1.60;;
18596;SDS011;9428;50.950;6.912;2022-07-29T00:20:29;4.38;;;1.83;;
18596;SDS011;9428;50.950;6.912;2022-07-29T00:23:16;3.55;;;1.63;;
18596;SDS011;9428;50.950;6.912;2022-07-29T00:26:03;4.32;;;1.88;;
18596;SDS011;9428;50.950;6.912;2022-07-29T00:28:51;3.13;;;1.60;;
18596;SDS011;9428;50.950;6.912;2022-07-29T00:31:39;6.95;;;1.83;;
18596;SDS011;9428;50.950;6.912;2022-07-29T00:34:27;10.50;;;2.20;;
18596;SDS011;9428;50.950;6.912;2022-07-29T00:37:31;3.00;;;1.85;;
18596;SDS011;9428;50.950;6.912;2022-07-29T00:40:18;5.13;;;1.67;;
18596;SDS011;9428;50.950;6.912;2022-07-29T00:43:06;6.38;;;1.70;;
18596;SDS011;9428;50.950;6.912;2022-07-29T00:45:54;3.90;;;1.95;;
18596;SDS011;9428;50.950;6.912;2022-07-29T00:48:42;6.25;;;1.67;;
18596;SDS011;9428;50.950;6.912;2022-07-29T00:51:30;3.05;;;1.52;;
18596;SDS011;9428;50.950;6.912;2022-07-29T00:54:18;4.90;;;1.77;;
18596;SDS011;9428;50.950;6.912;2022-07-29T00:57:05;3.58;;;1.55;;
18596;SDS011;9428;50.950;6.912;2022-07-29T00:59:53;6.03;;;1.90;;
18596;SDS011;9428;50.950;6.912;2022-07-29T01:02:43;6.10;;;1.98;;
18596;SDS011;9428;50.950;6.912;2022-07-29T01:05:32;3.65;;;1.55;;
18596;SDS011;9428;50.950;6.912;2022-07-29T01:08:21;4.78;;;1.88;;
18596;SDS011;9428;50.950;6.912;2022-07-29T01:11:09;7.43;;;1.98;;
18596;SDS011;9428;50.950;6.912;2022-07-29T01:13:57;3.80;;;1.88;;
18596;SDS011;9428;50.950;6.912;2022-07-29T01:16:46;2.78;;;1.67;;
18596;SDS011;9428;50.950;6.912;2022-07-29T01:19:57;6.50;;;2.08;;
18596;SDS011;9428;50.950;6.912;2022-07-29T01:22:57;5.80;;;1.70;;
18596;SDS011;9428;50.950;6.912;2022-07-29T01:26:00;5.32;;;1.85;;
18596;SDS011;9428;50.950;6.912;2022-07-29T01:29:07;5.30;;;1.73;;
18596;SDS011;9428;50.950;6.912;2022-07-29T01:32:01;7.07;;;1.50;;
18596;SDS011;9428;50.950;6.912;2022-07-29T01:34:54;4.05;;;1.63;;
18596;SDS011;9428;50.950;6.912;2022-07-29T01:37:45;5.45;;;1.80;;
18596;SDS011;9428;50.950;6.912;2022-07-29T01:40:38;3.90;;;1.90;;
18596;SDS011;9428;50.950;6.912;2022-07-29T01:43:32;5.00;;;1.38;;
18596;SDS011;9428;50.950;6.912;2022-07-29T01:46:30;4.60;;;1.50;;
18596;SDS011;9428;50.950;6.912;2022-07-29T01:49:22;9.55;;;1.70;;
18596;SDS011;9428;50.950;6.912;2022-07-29T01:52:13;5.78;;;1.70;;
18596;SDS011;9428;50.950;6.912;2022-07-29T01:55:07;4.53;;;1.50;;
18596;SDS011;9428;50.950;6.912;2022-07-29T01:57:59;2.65;;;1.63;;
18596;SDS011;9428;50.950;6.912;2022-07-29T02:00:49;4.85;;;1.60;;
18596;SDS011;9428;50.950;6.912;2022-07-29T02:03:39;4.15;;;2.05;;
18596;SDS011;9428;50.950;6.912;2022-07-29T02:06:31;6.00;;;1.70;;
18596;SDS011;9428;50.950;6.912;2022-07-29T02:09:21;5.68;;;2.00;;
18596;SDS011;9428;50.950;6.912;2022-07-29T02:12:11;5.65;;;1.67;;
18596;SDS011;9428;50.950;6.912;2022-07-29T02:15:00;3.03;;;1.80;;
18596;SDS011;9428;50.950;6.912;2022-07-29T02:17:50;5.93;;;2.03;;
18596;SDS011;9428;50.950;6.912;2022-07-29T02:20:42;5.00;;;1.70;;
18596;SDS011;9428;50.950;6.912;2022-07-29T02:23:33;5.70;;;2.00;;
18596;SDS011;9428;50.950;6.912;2022-07-29T02:26:24;7.32;;;1.77;;
18596;SDS011;9428;50.950;6.912;2022-07-29T02:29:14;4.60;;;1.70;;
18596;SDS011;9428;50.950;6.912;2022-07-29T02:32:03;6.13;;;2.13;;
18596;SDS011;9428;50.950;6.912;2022-07-29T02:34:53;6.45;;;1.65;;
18596;SDS011;9428;50.950;6.912;2022-07-29T02:37:43;6.65;;;1.92;;
18596;SDS011;9428;50.950;6.912;2022-07-29T02:40:51;3.97;;;2.13;;
18596;SDS011;9428;50.950;6.912;2022-07-29T02:43:41;4.38;;;1.80;;
18596;SDS011;9428;50.950;6.912;2022-07-29T02:46:32;4.85;;;1.75;;
18596;SDS011;9428;50.950;6.912;2022-07-29T02:49:25;3.50;;;1.60;;
18596;SDS011;9428;50.950;6.912;2022-07-29T02:52:22;6.22;;;2.03;;
18596;SDS011;9428;50.950;6.912;2022-07-29T02:55:16;3.72;;;1.70;;
18596;SDS011;9428;50.950;6.912;2022-07-29T02:58:13;3.80;;;1.80;;
18596;SDS011;9428;50.950;6.912;2022-07-29T03:01:08;3.70;;;1.67;;
18596;SDS011;9428;50.950;6.912;2022-07-29T03:04:00;3.63;;;1.65;;
18596;SDS011;9428;50.950;6.912;2022-07-29T03:06:50;8.88;;;1.83;;
18596;SDS011;9428;50.950;6.912;2022-07-29T03:09:38;4.70;;;1.77;;
18596;SDS011;9428;50.950;6.912;2022-07-29T03:12:29;3.83;;;1.52;;
18596;SDS011;9428;50.950;6.912;2022-07-29T03:15:17;6.38;;;1.60;;
18596;SDS011;9428;50.950;6.912;2022-07-29T03:18:05;3.92;;;1.58;;
18596;SDS011;9428;50.950;6.912;2022-07-29T03:20:53;3.20;;;1.38;;
18596;SDS011;9428;50.950;6.912;2022-07-29T03:23:43;3.00;;;1.58;;
18596;SDS011;9428;50.950;6.912;2022-07-29T03:26:31;7.72;;;1.58;;
18596;SDS011;9428;50.950;6.912;2022-07-29T03:29:21;3.28;;;1.60;;
18596;SDS011;9428;50.950;6.912;2022-07-29T03:32:08;2.40;;;1.60;;
18596;SDS011;9428;50.950;6.912;2022-07-29T03:34:55;3.38;;;1.60;;
18596;SDS011;9428;50.950;6.912;2022-07-29T03:37:43;4.05;;;1.50;;
18596;SDS011;9428;50.950;6.912;2022-07-29T03:40:31;4.90;;;1.90;;
18596;SDS011;9428;50.950;6.912;2022-07-29T03:43:20;9.15;;;2.10;;
18596;SDS011;9428;50.950;6.912;2022-07-29T03:46:10;6.00;;;1.80;;
18596;SDS011;9428;50.950;6.912;2022-07-29T03:49:01;3.47;;;1.70;;
18596;SDS011;9428;50.950;6.912;2022-07-29T03:51:50;6.40;;;1.85;;
18596;SDS011;9428;50.950;6.912;2022-07-29T03:54:37;5.00;;;2.00;;
18596;SDS011;9428;50.950;6.912;2022-07-29T03:57:27;4.82;;;1.92;;
18596;SDS011;9428;50.950;6.912;2022-07-29T04:00:16;6.53;;;1.80;;
18596;SDS011;9428;50.950;6.912;2022-07-29T04:03:06;3.80;;;1.73;;
18596;SDS011;9428;50.950;6.912;2022-07-29T04:06:00;4.43;;;1.92;;
18596;SDS011;9428;50.950;6.912;2022-07-29T04:08:48;4.25;;;1.65;;
18596;SDS011;9428;50.950;6.912;2022-07-29T04:11:35;11.43;;;2.50;;
18596;SDS011;9428;50.950;6.912;2022-07-29T04:14:23;2.65;;;2.08;;
18596;SDS011;9428;50.950;6.912;2022-07-29T04:17:10;6.90;;;1.95;;
18596;SDS011;9428;50.950;6.912;2022-07-29T04:19:59;5.15;;;2.38;;
18596;SDS011;9428;50.950;6.912;2022-07-29T04:22:46;4.93;;;1.77;;
18596;SDS011;9428;50.950;6.912;2022-07-29T04:25:36;3.72;;;1.40;;
18596;SDS011;9428;50.950;6.912;2022-07-29T04:28:24;5.57;;;1.90;;
18596;SDS011;9428;50.950;6.912;2022-07-29T04:31:11;3.55;;;1.50;;
18596;SDS011;9428;50.950;6.912;2022-07-29T04:33:59;7.82;;;2.42;;
18596;SDS011;9428;50.950;6.912;2022-07-29T04:36:48;8.77;;;2.13;;
18596;SDS011;9428;50.950;6.912;2022-07-29T04:39:35;4.82;;;2.42;;
18596;SDS011;9428;50.950;6.912;2022-07-29T04:42:22;5.18;;;1.83;;
18596;SDS011;9428;50.950;6.912;2022-07-29T04:45:09;2.83;;;1.63;;
18596;SDS011;9428;50.950;6.912;2022-07-29T04:47:57;7.93;;;2.17;;
18596;SDS011;9428;50.950;6.912;2022-07-29T04:50:44;3.70;;;1.98;;
18596;SDS011;9428;50.950;6.912;2022-07-29T04:53:33;7.75;;;2.08;;
18596;SDS011;9428;50.950;6.912;2022-07-29T04:56:20;5.03;;;2.17;;
18596;SDS011;9428;50.950;6.912;2022-07-29T04:59:07;8.90;;;3.33;;
18596;SDS011;9428;50.950;6.912;2022-07-29T05:01:55;8.30;;;2.17;;
18596;SDS011;9428;50.950;6.912;2022-07-29T05:04:42;9.02;;;2.60;;
18596;SDS011;9428;50.950;6.912;2022-07-29T05:07:29;3.88;;;1.95;;
18596;SDS011;9428;50.950;6.912;2022-07-29T05:10:18;7.63;;;2.10;;
18596;SDS011;9428;50.950;6.912;2022-07-29T05:13:05;5.32;;;1.70;;
18596;SDS011;9428;50.950;6.912;2022-07-29T05:15:53;8.32;;;2.75;;
18596;SDS011;9428;50.950;6.912;2022-07-29T05:18:40;4.95;;;1.65;;
18596;SDS011;9428;50.950;6.912;2022-07-29T05:21:27;2.92;;;1.80;;
18596;SDS011;9428;50.950;6.912;2022-07-29T05:24:15;5.45;;;1.83;;
18596;SDS011;9428;50.950;6.912;2022-07-29T05:27:04;7.35;;;2.22;;
18596;SDS011;9428;50.950;6.912;2022-07-29T05:29:51;7.18;;;2.08;;
18596;SDS011;9428;50.950;6.912;2022-07-29T05:32:38;6.07;;;2.17;;
18596;SDS011;9428;50.950;6.912;2022-07-29T05:35:25;5.40;;;1.95;;
18596;SDS011;9428;50.950;6.912;2022-07-29T05:38:13;8.48;;;2.78;;
18596;SDS011;9428;50.950;6.912;2022-07-29T05:41:01;5.75;;;2.05;;
18596;SDS011;9428;50.950;6.912;2022-07-29T05:43:49;5.68;;;2.20;;
18596;SDS011;9428;50.950;6.912;2022-07-29T05:46:37;4.18;;;1.98;;
18596;SDS011;9428;50.950;6.912;2022-07-29T05:49:24;10.35;;;1.88;;
18596;SDS011;9428;50.950;6.912;2022-07-29T05:52:11;6.40;;;1.98;;
18596;SDS011;9428;50.950;6.912;2022-07-29T05:54:59;3.70;;;1.58;;
18596;SDS011;9428;50.950;6.912;2022-07-29T05:57:49;6.97;;;2.20;;
18596;SDS011;9428;50.950;6.912;2022-07-29T06:00:40;5.35;;;1.90;;
18596;SDS011;9428;50.950;6.912;2022-07-29T06:03:27;10.73;;;2.38;;
18596;SDS011;9428;50.950;6.912;2022-07-29T06:06:15;5.22;;;1.85;;
18596;SDS011;9428;50.950;6.912;2022-07-29T06:09:02;4.35;;;2.08;;
18596;SDS011;9428;50.950;6.912;2022-07-29T06:11:50;6.15;;;2.30;;
18596;SDS011;9428;50.950;6.912;2022-07-29T06:14:37;5.28;;;1.55;;
18596;SDS011;9428;50.950;6.912;2022-07-29T06:17:26;4.13;;;1.55;;
18596;SDS011;9428;50.950;6.912;2022-07-29T06:20:13;5.90;;;1.83;;
18596;SDS011;9428;50.950;6.912;2022-07-29T06:23:00;7.28;;;1.95;;
18596;SDS011;9428;50.950;6.912;2022-07-29T06:25:49;10.20;;;2.33;;
18596;SDS011;9428;50.950;6.912;2022-07-29T06:28:37;7.35;;;3.80;;
18596;SDS011;9428;50.950;6.912;2022-07-29T06:31:24;7.07;;;2.05;;
18596;SDS011;9428;50.950;6.912;2022-07-29T06:34:12;6.97;;;2.17;;
18596;SDS011;9428;50.950;6.912;2022-07-29T06:37:00;10.93;;;2.10;;
18596;SDS011;9428;50.950;6.912;2022-07-29T06:39:52;4.43;;;1.90;;
18596;SDS011;9428;50.950;6.912;2022-07-29T06:42:59;3.40;;;2.22;;
18596;SDS011;9428;50.950;6.912;2022-07-29T06:45:46;5.18;;;1.88;;
18596;SDS011;9428;50.950;6.912;2022-07-29T06:48:34;4.10;;;2.20;;
18596;SDS011;9428;50.950;6.912;2022-07-29T06:51:23;8.68;;;2.40;;
18596;SDS011;9428;50.950;6.912;2022-07-29T06:54:12;6.80;;;2.10;;
18596;SDS011;9428;50.950;6.912;2022-07-29T06:57:00;8.70;;;2.10;;
18596;SDS011;9428;50.950;6.912;2022-07-29T06:59:47;7.22;;;2.10;;
18596;SDS011;9428;50.950;6.912;2022-07-29T07:02:34;11.85;;;2.70;;
18596;SDS011;9428;50.950;6.912;2022-07-29T07:05:22;10.48;;;2.58;;
18596;SDS011;9428;50.950;6.912;2022-07-29T07:08:11;7.45;;;2.70;;
18596;SDS011;9428;50.950;6.912;2022-07-29T07:10:58;8.98;;;3.20;;
18596;SDS011;9428;50.950;6.912;2022-07-29T07:13:46;6.85;;;2.92;;
18596;SDS011;9428;50.950;6.912;2022-07-29T07:16:33;14.60;;;3.65;;
18596;SDS011;9428;50.950;6.912;2022-07-29T07:19:20;9.82;;;3.38;;
18596;SDS011;9428;50.950;6.912;2022-07-29T07:22:08;8.05;;;2.33;;
18596;SDS011;9428;50.950;6.912;2022-07-29T07:24:56;7.78;;;3.10;;
18596;SDS011;9428;50.950;6.912;2022-07-29T07:27:43;5.00;;;2.55;;
18596;SDS011;9428;50.950;6.912;2022-07-29T07:30:31;8.75;;;3.05;;
18596;SDS011;9428;50.950;6.912;2022-07-29T07:33:18;6.40;;;2.60;;
18596;SDS011;9428;50.950;6.912;2022-07-29T07:36:06;6.72;;;2.50;;
18596;SDS011;9428;50.950;6.912;2022-07-29T07:38:53;5.35;;;2.72;;
18596;SDS011;9428;50.950;6.912;2022-07-29T07:41:42;7.32;;;2.53;;
18596;SDS011;9428;50.950;6.912;2022-07-29T07:44:29;8.10;;;2.90;;
18596;SDS011;9428;50.950;6.912;2022-07-29T07:47:17;12.60;;;2.72;;
18596;SDS011;9428;50.950;6.912;2022-07-29T07:50:08;6.00;;;3.00;;
18596;SDS011;9428;50.950;6.912;2022-07-29T07:52:57;9.75;;;2.78;;
18596;SDS011;9428;50.950;6.912;2022-07-29T07:55:47;5.97;;;2.88;;
18596;SDS011;9428;50.950;6.912;2022-07-29T07:58:35;10.85;;;4.70;;
18596;SDS011;9428;50.950;6.912;2022-07-29T08:01:23;21.13;;;10.95;;
18596;SDS011;9428;50.950;6.912;2022-07-29T08:04:11;18.55;;;9.98;;
18596;SDS011;9428;50.950;6.912;2022-07-29T08:06:59;30.13;;;15.65;;
18596;SDS011;9428;50.950;6.912;2022-07-29T08:09:47;31.77;;;14.93;;
18596;SDS011;9428;50.950;6.912;2022-07-29T08:12:35;23.70;;;11.85;;
18596;SDS011;9428;50.950;6.912;2022-07-29T08:15:23;8.80;;;5.00;;
18596;SDS011;9428;50.950;6.912;2022-07-29T08:18:11;11.80;;;4.75;;
18596;SDS011;9428;50.950;6.912;2022-07-29T08:20:58;9.00;;;4.05;;
18596;SDS011;9428;50.950;6.912;2022-07-29T08:23:46;8.25;;;3.65;;
18596;SDS011;9428;50.950;6.912;2022-07-29T08:26:34;9.68;;;3.10;;
18596;SDS011;9428;50.950;6.912;2022-07-29T08:29:22;4.88;;;2.45;;
18596;SDS011;9428;50.950;6.912;2022-07-29T08:32:10;8.25;;;2.70;;
18596;SDS011;9428;50.950;6.912;2022-07-29T08:34:58;8.73;;;2.83;;
18596;SDS011;9428;50.950;6.912;2022-07-29T08:37:46;6.85;;;2.72;;
18596;SDS011;9428;50.950;6.912;2022-07-29T08:40:33;7.32;;;3.20;;
18596;SDS011;9428;50.950;6.912;2022-07-29T08:43:20;7.28;;;3.08;;
18596;SDS011;9428;50.950;6.912;2022-07-29T08:46:07;7.22;;;3.03;;
18596;SDS011;9428;50.950;6.912;2022-07-29T08:48:56;9.45;;;3.33;;
18596;SDS011;9428;50.950;6.912;2022-07-29T08:51:44;7.30;;;3.30;;
18596;SDS011;9428;50.950;6.912;2022-07-29T08:54:31;7.30;;;3.20;;
18596;SDS011;9428;50.950;6.912;2022-07-29T08:57:19;7.03;;;3.85;;
18596;SDS011;9428;50.950;6.912;2022-07-29T09:00:08;9.75;;;3.67;;
18596;SDS011;9428;50.950;6.912;2022-07-29T09:02:57;13.43;;;3.88;;
18596;SDS011;9428;50.950;6.912;2022-07-29T09:05:47;7.38;;;3.80;;
18596;SDS011;9428;50.950;6.912;2022-07-29T09:08:34;8.10;;;3.38;;
18596;SDS011;9428;50.950;6.912;2022-07-29T09:11:22;8.93;;;4.15;;
18596;SDS011;9428;50.950;6.912;2022-07-29T09:14:10;5.43;;;3.65;;
18596;SDS011;9428;50.950;6.912;2022-07-29T09:16:58;7.07;;;3.72;;
18596;SDS011;9428;50.950;6.912;2022-07-29T09:19:47;10.02;;;4.00;;
18596;SDS011;9428;50.950;6.912;2022-07-29T09:22:35;11.60;;;3.72;;
18596;SDS011;9428;50.950;6.912;2022-07-29T09:25:32;9.02;;;3.55;;
18596;SDS011;9428;50.950;6.912;2022-07-29T09:28:20;5.55;;;3.47;;
18596;SDS011;9428;50.950;6.912;2022-07-29T09:31:09;4.88;;;3.15;;
18596;SDS011;9428;50.950;6.912;2022-07-29T09:33:57;9.73;;;3.45;;
18596;SDS011;9428;50.950;6.912;2022-07-29T09:36:46;13.05;;;4.70;;
18596;SDS011;9428;50.950;6.912;2022-07-29T09:39:35;4.75;;;3.75;;
18596;SDS011;9428;50.950;6.912;2022-07-29T09:42:29;14.65;;;3.72;;
18596;SDS011;9428;50.950;6.912;2022-07-29T09:45:28;5.70;;;2.97;;
18596;SDS011;9428;50.950;6.912;2022-07-29T09:48:17;8.60;;;3.13;;
18596;SDS011;9428;50.950;6.912;2022-07-29T09:51:16;6.28;;;3.45;;
18596;SDS011;9428;50.950;6.912;2022-07-29T09:54:07;5.85;;;3.00;;
18596;SDS011;9428;50.950;6.912;2022-07-29T09:57:22;9.23;;;3.33;;
18596;SDS011;9428;50.950;6.912;2022-07-29T10:00:12;7.88;;;2.97;;
18596;SDS011;9428;50.950;6.912;2022-07-29T10:03:01;5.38;;;2.72;;
18596;SDS011;9428;50.950;6.912;2022-07-29T10:06:03;7.57;;;2.47;;
18596;SDS011;9428;50.950;6.912;2022-07-29T10:08:55;5.47;;;3.00;;
18596;SDS011;9428;50.950;6.912;2022-07-29T10:12:04;10.77;;;2.70;;
18596;SDS011;9428;50.950;6.912;2022-07-29T10:14:54;9.60;;;3.38;;
18596;SDS011;9428;50.950;6.912;2022-07-29T10:17:42;6.65;;;2.95;;
18596;SDS011;9428;50.950;6.912;2022-07-29T10:20:30;6.72;;;3.13;;
18596;SDS011;9428;50.950;6.912;2022-07-29T10:23:17;6.82;;;3.13;;
18596;SDS011;9428;50.950;6.912;2022-07-29T10:26:05;7.32;;;3.47;;
18596;SDS011;9428;50.950;6.912;2022-07-29T10:28:53;5.15;;;2.95;;
18596;SDS011;9428;50.950;6.912;2022-07-29T10:31:42;8.10;;;4.55;;
18596;SDS011;9428;50.950;6.912;2022-07-29T10:34:39;10.40;;;3.55;;
18596;SDS011;9428;50.950;6.912;2022-07-29T10:37:42;6.40;;;3.47;;
18596;SDS011;9428;50.950;6.912;2022-07-29T10:40:43;7.43;;;3.45;;
18596;SDS011;9428;50.950;6.912;2022-07-29T10:43:59;5.97;;;3.33;;
18596;SDS011;9428;50.950;6.912;2022-07-29T10:46:49;8.63;;;4.10;;
18596;SDS011;9428;50.950;6.912;2022-07-29T10:49:37;11.63;;;4.10;;
18596;SDS011;9428;50.950;6.912;2022-07-29T10:52:54;6.50;;;3.28;;
18596;SDS011;9428;50.950;6.912;2022-07-29T10:55:45;9.98;;;3.92;;
18596;SDS011;9428;50.950;6.912;2022-07-29T10:58:35;11.90;;;3.30;;
18596;SDS011;9428;50.950;6.912;2022-07-29T11:01:28;5.68;;;3.10;;
18596;SDS011;9428;50.950;6.912;2022-07-29T11:04:18;5.88;;;3.53;;
18596;SDS011;9428;50.950;6.912;2022-07-29T11:18:04;9.13;;;2.67;;
18596;SDS011;9428;50.950;6.912;2022-07-29T11:20:53;5.55;;;2.95;;
18596;SDS011;9428;50.950;6.912;2022-07-29T11:23:41;7.70;;;2.78;;
18596;SDS011;9428;50.950;6.912;2022-07-29T11:26:28;8.15;;;2.88;;
18596;SDS011;9428;50.950;6.912;2022-07-29T11:29:17;6.53;;;2.83;;
18596;SDS011;9428;50.950;6.912;2022-07-29T11:32:08;6.47;;;2.85;;
18596;SDS011;9428;50.950;6.912;2022-07-29T11:35:15;8.57;;;2.97;;
18596;SDS011;9428;50.950;6.912;2022-07-29T11:38:25;7.00;;;2.33;;
18596;SDS011;9428;50.950;6.912;2022-07-29T11:41:23;7.32;;;2.70;;
18596;SDS011;9428;50.950;6.912;2022-07-29T11:44:26;4.22;;;2.35;;
18596;SDS011;9428;50.950;6.912;2022-07-29T11:47:46;6.70;;;2.83;;
18596;SDS011;9428;50.950;6.912;2022-07-29T11:50:39;4.07;;;2.40;;
18596;SDS011;9428;50.950;6.912;2022-07-29T11:53:27;6.40;;;2.20;;
18596;SDS011;9428;50.950;6.912;2022-07-29T11:56:15;4.85;;;2.78;;
18596;SDS011;9428;50.950;6.912;2022-07-29T11:59:07;4.72;;;2.58;;
18596;SDS011;9428;50.950;6.912;2022-07-29T12:01:56;3.67;;;2.13;;
18596;SDS011;9428;50.950;6.912;2022-07-29T12:04:48;6.25;;;2.22;;
18596;SDS011;9428;50.950;6.912;2022-07-29T12:07:36;10.73;;;2.10;;
18596;SDS011;9428;50.950;6.912;2022-07-29T12:10:25;4.50;;;2.60;;
18596;SDS011;9428;50.950;6.912;2022-07-29T12:13:18;7.85;;;2.67;;
18596;SDS011;9428;50.950;6.912;2022-07-29T12:16:07;4.60;;;2.22;;
18596;SDS011;9428;50.950;6.912;2022-07-29T12:18:55;4.90;;;2.40;;
18596;SDS011;9428;50.950;6.912;2022-07-29T12:21:44;5.15;;;2.10;;
18596;SDS011;9428;50.950;6.912;2022-07-29T12:24:42;10.52;;;3.20;;
18596;SDS011;9428;50.950;6.912;2022-07-29T12:27:31;3.75;;;1.88;;
18596;SDS011;9428;50.950;6.912;2022-07-29T12:30:19;8.80;;;2.28;;
18596;SDS011;9428;50.950;6.912;2022-07-29T12:33:13;7.07;;;2.40;;
18596;SDS011;9428;50.950;6.912;2022-07-29T12:36:03;7.95;;;1.98;;
18596;SDS011;9428;50.950;6.912;2022-07-29T12:38:50;6.05;;;2.20;;
18596;SDS011;9428;50.950;6.912;2022-07-29T12:41:38;3.40;;;1.90;;
18596;SDS011;9428;50.950;6.912;2022-07-29T12:44:29;4.03;;;1.92;;
18596;SDS011;9428;50.950;6.912;2022-07-29T12:47:30;6.07;;;1.83;;
18596;SDS011;9428;50.950;6.912;2022-07-29T12:50:18;4.32;;;1.70;;
18596;SDS011;9428;50.950;6.912;2022-07-29T12:53:09;3.67;;;2.00;;
18596;SDS011;9428;50.950;6.912;2022-07-29T12:55:59;4.75;;;1.88;;
18596;SDS011;9428;50.950;6.912;2022-07-29T12:58:47;4.60;;;1.73;;
18596;SDS011;9428;50.950;6.912;2022-07-29T13:01:37;7.63;;;2.10;;
18596;SDS011;9428;50.950;6.912;2022-07-29T13:04:26;5.40;;;2.38;;
18596;SDS011;9428;50.950;6.912;2022-07-29T13:07:14;5.78;;;2.05;;
18596;SDS011;9428;50.950;6.912;2022-07-29T13:10:15;8.35;;;2.08;;
18596;SDS011;9428;50.950;6.912;2022-07-29T13:13:07;8.73;;;1.88;;
18596;SDS011;9428;50.950;6.912;2022-07-29T13:16:04;2.90;;;1.88;;
18596;SDS011;9428;50.950;6.912;2022-07-29T13:19:16;5.63;;;1.90;;
18596;SDS011;9428;50.950;6.912;2022-07-29T13:22:04;4.50;;;2.10;;
18596;SDS011;9428;50.950;6.912;2022-07-29T13:24:52;6.63;;;2.58;;
18596;SDS011;9428;50.950;6.912;2022-07-29T13:27:41;8.30;;;3.30;;
18596;SDS011;9428;50.950;6.912;2022-07-29T13:30:31;7.28;;;3.05;;
18596;SDS011;9428;50.950;6.912;2022-07-29T13:33:18;5.63;;;3.53;;
18596;SDS011;9428;50.950;6.912;2022-07-29T13:36:07;7.10;;;3.50;;
18596;SDS011;9428;50.950;6.912;2022-07-29T13:38:54;6.13;;;2.80;;
18596;SDS011;9428;50.950;6.912;2022-07-29T13:41:42;11.73;;;3.38;;
18596;SDS011;9428;50.950;6.912;2022-07-29T13:44:29;7.93;;;2.97;;
18596;SDS011;9428;50.950;6.912;2022-07-29T13:47:16;8.88;;;3.38;;
18596;SDS011;9428;50.950;6.912;2022-07-29T13:50:04;7.72;;;2.90;;
18596;SDS011;9428;50.950;6.912;2022-07-29T13:52:54;12.45;;;3.75;;
18596;SDS011;9428;50.950;6.912;2022-07-29T13:55:41;7.55;;;3.35;;
18596;SDS011;9428;50.950;6.912;2022-07-29T13:58:29;10.85;;;3.22;;
18596;SDS011;9428;50.950;6.912;2022-07-29T14:01:16;4.90;;;3.15;;
18596;SDS011;9428;50.950;6.912;2022-07-29T14:04:03;7.78;;;3.25;;
18596;SDS011;9428;50.950;6.912;2022-07-29T14:06:51;7.88;;;3.05;;
18596;SDS011;9428;50.950;6.912;2022-07-29T14:09:40;6.13;;;2.90;;
18596;SDS011;9428;50.950;6.912;2022-07-29T14:12:27;9.90;;;2.90;;
18596;SDS011;9428;50.950;6.912;2022-07-29T14:15:14;10.02;;;3.35;;
18596;SDS011;9428;50.950;6.912;2022-07-29T14:18:01;8.63;;;3.60;;
18596;SDS011;9428;50.950;6.912;2022-07-29T14:20:49;6.53;;;2.88;;
18596;SDS011;9428;50.950;6.912;2022-07-29T14:23:36;7.88;;;3.10;;
18596;SDS011;9428;50.950;6.912;2022-07-29T14:26:25;9.20;;;3.78;;
18596;SDS011;9428;50.950;6.912;2022-07-29T14:29:12;12.38;;;3.75;;
18596;SDS011;9428;50.950;6.912;2022-07-29T14:31:59;12.93;;;3.65;;
18596;SDS011;9428;50.950;6.912;2022-07-29T14:34:47;8.25;;;3.15;;
18596;SDS011;9428;50.950;6.912;2022-07-29T14:37:34;6.97;;;3.35;;
18596;SDS011;9428;50.950;6.912;2022-07-29T14:40:22;5.97;;;2.78;;
18596;SDS011;9428;50.950;6.912;2022-07-29T14:43:12;6.80;;;3.22;;
18596;SDS011;9428;50.950;6.912;2022-07-29T14:46:00;7.63;;;2.97;;
18596;SDS011;9428;50.950;6.912;2022-07-29T14:48:47;10.85;;;2.78;;
18596;SDS011;9428;50.950;6.912;2022-07-29T14:51:34;9.23;;;2.50;;
18596;SDS011;9428;50.950;6.912;2022-07-29T14:54:22;8.30;;;3.05;;
18596;SDS011;9428;50.950;6.912;2022-07-29T14:57:09;6.00;;;2.63;;
18596;SDS011;9428;50.950;6.912;2022-07-29T14:59:58;5.70;;;2.13;;
18596;SDS011;9428;50.950;6.912;2022-07-29T15:02:46;4.80;;;2.30;;
18596;SDS011;9428;50.950;6.912;2022-07-29T15:05:33;4.45;;;2.45;;
18596;SDS011;9428;50.950;6.912;2022-07-29T15:08:20;4.55;;;2.65;;
18596;SDS011;9428;50.950;6.912;2022-07-29T15:11:08;4.57;;;2.50;;
18596;SDS011;9428;50.950;6.912;2022-07-29T15:13:55;4.07;;;2.60;;
18596;SDS011;9428;50.950;6.912;2022-07-29T15:16:44;6.88;;;2.53;;
18596;SDS011;9428;50.950;6.912;2022-07-29T15:19:31;7.25;;;2.58;;
18596;SDS011;9428;50.950;6.912;2022-07-29T15:22:18;7.30;;;3.60;;
18596;SDS011;9428;50.950;6.912;2022-07-29T15:25:06;5.72;;;2.47;;
18596;SDS011;9428;50.950;6.912;2022-07-29T15:27:53;4.57;;;2.53;;
18596;SDS011;9428;50.950;6.912;2022-07-29T15:30:41;5.13;;;2.47;;
18596;SDS011;9428;50.950;6.912;2022-07-29T15:33:29;5.45;;;2.67;;
18596;SDS011;9428;50.950;6.912;2022-07-29T15:36:17;6.22;;;2.40;;
18596;SDS011;9428;50.950;6.912;2022-07-29T15:39:04;8.23;;;2.50;;
18596;SDS011;9428;50.950;6.912;2022-07-29T15:41:51;4.65;;;2.20;;
18596;SDS011;9428;50.950;6.912;2022-07-29T15:44:39;5.35;;;2.75;;
18596;SDS011;9428;50.950;6.912;2022-07-29T15:47:26;3.95;;;2.30;;
18596;SDS011;9428;50.950;6.912;2022-07-29T15:50:15;4.85;;;1.80;;
18596;SDS011;9428;50.950;6.912;2022-07-29T15:53:03;8.05;;;2.92;;
18596;SDS011;9428;50.950;6.912;2022-07-29T15:55:50;5.05;;;3.33;;
18596;SDS011;9428;50.950;6.912;2022-07-29T15:58:37;5.10;;;2.13;;
18596;SDS011;9428;50.950;6.912;2022-07-29T16:01:24;3.42;;;1.85;;
18596;SDS011;9428;50.950;6.912;2022-07-29T16:04:12;3.20;;;1.88;;
18596;SDS011;9428;50.950;6.912;2022-07-29T16:07:00;4.72;;;2.13;;
18596;SDS011;9428;50.950;6.912;2022-07-29T16:09:48;6.60;;;2.25;;
18596;SDS011;9428;50.950;6.912;2022-07-29T16:12:35;8.90;;;3.47;;
18596;SDS011;9428;50.950;6.912;2022-07-29T16:15:22;4.75;;;2.00;;
18596;SDS011;9428;50.950;6.912;2022-07-29T16:18:10;10.02;;;2.17;;
18596;SDS011;9428;50.950;6.912;2022-07-29T16:20:58;3.90;;;1.88;;
18596;SDS011;9428;50.950;6.912;2022-07-29T16:23:47;4.35;;;2.10;;
18596;SDS011;9428;50.950;6.912;2022-07-29T16:26:34;4.40;;;2.17;;
18596;SDS011;9428;50.950;6.912;2022-07-29T16:29:21;5.18;;;2.50;;
18596;SDS011;9428;50.950;6.912;2022-07-29T16:32:09;5.28;;;1.80;;
18596;SDS011;9428;50.950;6.912;2022-07-29T16:34:56;9.07;;;2.60;;
18596;SDS011;9428;50.950;6.912;2022-07-29T16:37:46;3.42;;;1.92;;
18596;SDS011;9428;50.950;6.912;2022-07-29T16:40:35;4.55;;;2.35;;
18596;SDS011;9428;50.950;6.912;2022-07-29T16:43:23;6.10;;;2.03;;
18596;SDS011;9428;50.950;6.912;2022-07-29T16:46:10;4.82;;;2.03;;
18596;SDS011;9428;50.950;6.912;2022-07-29T16:48:57;5.25;;;2.40;;
18596;SDS011;9428;50.950;6.912;2022-07-29T16:51:45;6.78;;;1.88;;
18596;SDS011;9428;50.950;6.912;2022-07-29T16:54:33;7.65;;;2.17;;
18596;SDS011;9428;50.950;6.912;2022-07-29T16:57:21;2.83;;;2.03;;
18596;SDS011;9428;50.950;6.912;2022-07-29T17:00:09;3.83;;;2.10;;
18596;SDS011;9428;50.950;6.912;2022-07-29T17:02:57;3.80;;;1.90;;
18596;SDS011;9428;50.950;6.912;2022-07-29T17:05:45;10.27;;;2.38;;
18596;SDS011;9428;50.950;6.912;2022-07-29T17:08:33;4.80;;;1.80;;
18596;SDS011;9428;50.950;6.912;2022-07-29T17:11:20;3.22;;;1.92;;
18596;SDS011;9428;50.950;6.912;2022-07-29T17:14:09;5.95;;;2.17;;
18596;SDS011;9428;50.950;6.912;2022-07-29T17:16:57;5.28;;;2.47;;
18596;SDS011;9428;50.950;6.912;2022-07-29T17:19:45;5.28;;;2.15;;
18596;SDS011;9428;50.950;6.912;2022-07-29T17:22:33;5.65;;;2.45;;
18596;SDS011;9428;50.950;6.912;2022-07-29T17:25:20;3.83;;;2.25;;
18596;SDS011;9428;50.950;6.912;2022-07-29T17:28:07;4.28;;;2.00;;